createdAt,value
2023-05-12T00:00:15.283Z,82.08
2023-05-12T00:05:18.751Z,84.64
2023-05-12T00:10:21.080Z,83.01
2023-05-12T00:15:23.261Z,83.74
2023-05-12T00:20:24.933Z,83.76
2023-05-12T00:25:26.617Z,81.79
2023-05-12T00:30:28.240Z,83.57
2023-05-12T00:35:29.934Z,84.02
2023-05-12T00:40:31.592Z,85.16
2023-05-12T00:45:33.455Z,83.88
2023-05-12T00:50:35.160Z,84.09
2023-05-12T00:55:37.497Z,82.73
2023-05-12T01:00:39.751Z,83.29
2023-05-12T01:06:08.489Z,82.74
2023-05-12T01:11:10.718Z,81.88
2023-05-12T01:16:15.328Z,83.99
2023-05-12T01:21:18.088Z,82.31
2023-05-12T01:26:20.141Z,82.28
2023-05-12T01:31:22.320Z,81.71
2023-05-12T01:36:23.946Z,83.07
2023-05-12T01:41:26.016Z,83.35
2023-05-12T01:46:27.730Z,83.79
2023-05-12T01:51:33.217Z,83.58
2023-05-12T01:56:36.549Z,83.29
2023-05-12T02:01:38.255Z,86.50
2023-05-12T02:06:40.986Z,88.37
2023-05-12T02:11:42.632Z,87.52
2023-05-12T02:16:44.408Z,86.32
2023-05-12T02:21:46.287Z,88.42
2023-05-12T02:26:47.955Z,88.94
2023-05-12T02:31:49.690Z,89.08
2023-05-12T02:36:52.405Z,90.81
2023-05-12T02:41:54.221Z,90.40
2023-05-12T02:46:58.077Z,88.58
2023-05-12T02:51:59.690Z,88.89
2023-05-12T02:57:05.057Z,89.56
2023-05-12T03:02:07.155Z,89.55
2023-05-12T03:07:09.557Z,89.20
2023-05-12T03:12:11.289Z,90.43
2023-05-12T03:17:13.021Z,90.53
2023-05-12T03:22:14.941Z,89.50
2023-05-12T03:27:16.616Z,91.50
2023-05-12T03:32:18.290Z,91.25
2023-05-12T03:37:19.973Z,89.27
2023-05-12T03:42:21.738Z,89.31
2023-05-12T03:47:23.633Z,92.01
2023-05-12T03:52:25.452Z,92.12
2023-05-12T03:57:27.091Z,90.99
2023-05-12T04:02:29.084Z,90.95
2023-05-12T04:07:30.769Z,91.78
2023-05-12T04:12:32.870Z,91.51
2023-05-12T04:17:35.180Z,90.83
2023-05-12T04:22:36.853Z,90.77
2023-05-12T04:27:38.916Z,90.25
2023-05-12T04:32:41.328Z,90.64
2023-05-12T04:37:43.318Z,90.72
2023-05-12T04:42:45.237Z,88.04
2023-05-12T04:47:48.688Z,85.29
2023-05-12T04:52:50.446Z,84.68
2023-05-12T04:57:52.201Z,83.87
2023-05-12T05:02:54.567Z,82.49
2023-05-12T05:07:56.662Z,82.51
2023-05-12T05:12:58.636Z,79.81
2023-05-12T05:18:01.959Z,77.90
2023-05-12T05:23:04.308Z,77.49
2023-05-12T05:28:06.620Z,77.08
2023-05-12T05:33:08.608Z,76.77
2023-05-12T05:38:10.575Z,75.96
2023-05-12T05:43:12.815Z,74.70
2023-05-12T05:48:14.879Z,74.37
2023-05-12T05:53:18.592Z,71.62
2023-05-12T05:58:20.491Z,70.39
2023-05-12T06:03:23.610Z,72.54
2023-05-12T06:08:25.380Z,69.37
2023-05-12T06:13:29.147Z,65.48
2023-05-12T06:18:30.889Z,63.43
2023-05-12T06:23:32.578Z,66.26
2023-05-12T06:28:34.394Z,65.05
2023-05-12T06:33:36.829Z,62.68
2023-05-12T06:38:38.503Z,62.48
2023-05-12T06:43:40.116Z,59.66
2023-05-12T06:48:42.090Z,59.02
2023-05-12T06:53:43.764Z,55.32
2023-05-12T06:58:45.517Z,52.89
2023-05-12T07:03:47.160Z,48.75
2023-05-12T07:08:48.897Z,49.30
2023-05-12T07:13:51.194Z,50.01
2023-05-12T07:18:52.931Z,52.19
2023-05-12T07:23:54.674Z,51.05
2023-05-12T07:28:56.454Z,47.37
2023-05-12T07:33:58.118Z,47.43
2023-05-12T07:38:59.794Z,46.54
2023-05-12T07:44:02.346Z,42.45
2023-05-12T07:49:03.982Z,40.84
2023-05-12T07:54:07.213Z,39.59
2023-05-12T07:59:08.859Z,40.21
2023-05-12T08:04:10.750Z,37.87
2023-05-12T08:09:12.575Z,35.79
2023-05-12T08:14:14.175Z,37.59
2023-05-12T08:19:15.935Z,38.58
2023-05-12T08:24:17.913Z,41.54
2023-05-12T08:29:19.517Z,36.60
2023-05-12T08:34:21.267Z,35.96
2023-05-12T08:39:23.001Z,33.28
2023-05-12T08:44:25.421Z,32.58
2023-05-12T08:49:29.494Z,34.39
2023-05-12T08:54:33.435Z,34.91
2023-05-12T08:59:37.947Z,34.50
2023-05-12T09:04:39.745Z,37.27
2023-05-12T09:09:45.735Z,36.67
2023-05-12T09:14:53.830Z,39.86
2023-05-12T09:19:55.569Z,40.26
2023-05-12T09:24:57.372Z,40.29
2023-05-12T09:29:59.963Z,38.78
2023-05-12T09:35:11.410Z,37.85
2023-05-12T09:40:13.898Z,38.73
2023-05-12T09:45:15.640Z,38.12
2023-05-12T09:50:18.919Z,38.79
2023-05-12T09:55:21.125Z,39.16
2023-05-12T10:00:37.007Z,39.08
2023-05-12T10:05:50.924Z,40.14
2023-05-12T10:10:53.922Z,38.91
2023-05-12T10:15:57.624Z,40.17
2023-05-12T10:21:00.719Z,40.64
2023-05-12T10:26:03.432Z,38.97
2023-05-12T10:31:08.263Z,40.16
2023-05-12T10:36:19.730Z,39.93
2023-05-12T10:41:31.813Z,41.70
2023-05-12T10:46:33.609Z,42.61
2023-05-12T10:51:52.266Z,38.52
2023-05-12T10:56:58.697Z,39.47
2023-05-12T11:02:01.787Z,38.79
2023-05-12T11:07:08.037Z,35.84
2023-05-12T11:12:12.103Z,37.01
2023-05-12T11:17:15.070Z,36.01
2023-05-12T11:22:19.905Z,40.11
2023-05-12T11:27:23.466Z,37.88
2023-05-12T11:32:25.753Z,37.60
2023-05-12T11:37:27.660Z,36.65
2023-05-12T11:42:29.360Z,38.24
2023-05-12T11:47:32.989Z,40.83
2023-05-12T11:52:34.706Z,40.61
2023-05-12T11:57:36.490Z,40.84
2023-05-12T12:02:39.936Z,40.54
2023-05-12T12:07:41.738Z,40.63
2023-05-12T12:12:44.473Z,43.14
2023-05-12T12:17:46.178Z,39.96
2023-05-12T12:22:47.814Z,42.73
2023-05-12T12:27:49.537Z,45.66
2023-05-12T12:32:51.292Z,46.72
2023-05-12T12:37:53.043Z,47.09
2023-05-12T12:42:54.811Z,48.05
2023-05-12T12:47:56.559Z,47.89
2023-05-12T12:52:58.222Z,48.72
2023-05-12T12:57:59.857Z,48.91
2023-05-12T13:03:01.812Z,49.87
2023-05-12T13:08:03.842Z,49.21
2023-05-12T13:13:06.203Z,49.55
2023-05-12T13:18:08.021Z,49.52
2023-05-12T13:23:09.677Z,50.09
2023-05-12T13:28:11.298Z,49.01
2023-05-12T13:33:12.967Z,48.05
2023-05-12T13:38:14.616Z,46.24
2023-05-12T13:43:16.322Z,48.06
2023-05-12T13:48:17.980Z,47.24
2023-05-12T13:53:19.693Z,48.32
2023-05-12T13:58:21.289Z,49.68
2023-05-12T14:03:23.213Z,48.65
2023-05-12T14:08:24.903Z,46.99
2023-05-12T14:13:26.518Z,47.17
2023-05-12T14:18:28.182Z,48.57
2023-05-12T14:23:29.856Z,49.57
2023-05-12T14:28:31.541Z,49.40
2023-05-12T14:33:33.297Z,49.11
2023-05-12T14:38:35.208Z,48.80
2023-05-12T14:43:37.246Z,48.55
2023-05-12T14:48:38.847Z,48.29
2023-05-12T14:53:40.515Z,51.67
2023-05-12T14:58:42.176Z,53.72
2023-05-12T15:03:44.415Z,52.16
2023-05-12T15:08:46.080Z,54.85
2023-05-12T15:13:47.803Z,53.96
2023-05-12T15:18:50.197Z,49.52
2023-05-12T15:23:51.841Z,50.31
2023-05-12T15:28:53.476Z,49.41
2023-05-12T15:33:56.520Z,50.31
2023-05-12T15:38:58.178Z,50.64
2023-05-12T15:43:59.887Z,49.26
2023-05-12T15:49:01.904Z,49.61
2023-05-12T15:54:05.567Z,47.96
2023-05-12T15:59:08.061Z,45.94
2023-05-12T16:04:09.845Z,46.72
2023-05-12T16:09:11.696Z,45.35
2023-05-12T16:14:14.035Z,45.89
2023-05-12T16:19:15.846Z,63.74
2023-05-12T16:24:17.750Z,66.20
2023-05-12T16:29:19.371Z,66.51
2023-05-12T16:34:21.303Z,73.82
2023-05-12T16:39:22.959Z,82.47
2023-05-12T16:44:24.741Z,74.49
2023-05-12T16:49:26.387Z,70.44
2023-05-12T16:54:27.999Z,68.93
2023-05-12T16:59:32.336Z,62.89
2023-05-12T17:04:34.492Z,68.17
2023-05-12T17:09:36.465Z,69.46
2023-05-12T17:14:38.394Z,67.59
2023-05-12T17:19:42.085Z,67.63
2023-05-12T17:24:44.593Z,66.38
2023-05-12T17:29:46.367Z,66.40
2023-05-12T17:34:50.560Z,68.11
2023-05-12T17:39:52.553Z,68.69
2023-05-12T17:44:54.200Z,68.46
2023-05-12T17:49:56.613Z,70.70
2023-05-12T17:54:58.405Z,70.38
2023-05-12T18:00:00.554Z,71.81
2023-05-12T18:05:02.411Z,71.75
2023-05-12T18:10:09.994Z,74.22
2023-05-12T18:15:11.896Z,73.21
2023-05-12T18:20:13.750Z,71.37
2023-05-12T18:25:15.466Z,71.60
2023-05-12T18:30:17.198Z,72.72
2023-05-12T18:35:19.669Z,72.55
2023-05-12T18:40:21.926Z,73.95
2023-05-12T18:45:23.868Z,75.00
2023-05-12T18:50:25.643Z,75.85
2023-05-12T18:55:27.255Z,77.20
2023-05-12T19:00:31.990Z,76.09
2023-05-12T19:05:33.622Z,77.52
2023-05-12T19:10:36.716Z,80.39
2023-05-12T19:15:40.260Z,80.68
2023-05-12T19:20:41.885Z,80.89
2023-05-12T19:25:43.697Z,81.33
2023-05-12T19:30:45.376Z,82.14
2023-05-12T19:35:47.543Z,83.75
2023-05-12T19:40:49.170Z,81.64
2023-05-12T19:45:50.938Z,82.06
2023-05-12T19:50:53.996Z,83.37
2023-05-12T19:55:55.654Z,86.51
2023-05-12T20:00:57.353Z,86.43
2023-05-12T20:05:59.036Z,86.12
2023-05-12T20:11:00.685Z,86.70
2023-05-12T20:16:02.699Z,88.99
2023-05-12T20:21:04.404Z,90.50
2023-05-12T20:26:06.746Z,91.40
2023-05-12T20:31:10.173Z,91.24
2023-05-12T20:36:11.967Z,93.71
2023-05-12T20:41:13.847Z,94.16
2023-05-12T20:46:15.670Z,95.34
2023-05-12T20:51:17.395Z,96.23
2023-05-12T20:56:19.791Z,97.20
2023-05-12T21:01:21.470Z,97.17
2023-05-12T21:06:23.178Z,95.91
2023-05-12T21:11:24.819Z,96.90
2023-05-12T21:16:26.503Z,97.16
2023-05-12T21:21:28.709Z,97.46
2023-05-12T21:26:30.348Z,99.76
2023-05-12T21:31:32.131Z,100.00
2023-05-12T21:36:33.740Z,100.00
2023-05-12T21:41:35.837Z,100.00
2023-05-12T21:46:37.816Z,100.00
2023-05-12T21:51:39.493Z,100.00
2023-05-12T21:56:41.099Z,100.00
2023-05-12T22:01:42.747Z,100.00
2023-05-12T22:06:44.598Z,100.00
2023-05-12T22:11:46.468Z,100.00
2023-05-12T22:16:48.119Z,100.00
2023-05-12T22:21:49.772Z,100.00
2023-05-12T22:26:51.597Z,100.00
2023-05-12T22:31:53.209Z,100.00
2023-05-12T22:36:54.896Z,100.00
2023-05-12T22:41:56.567Z,100.00
2023-05-12T22:46:58.254Z,100.00
2023-05-12T22:51:59.913Z,100.00
2023-05-12T22:57:01.554Z,100.00
2023-05-12T23:02:03.168Z,100.00
2023-05-12T23:07:07.048Z,100.00
2023-05-12T23:12:10.631Z,100.00
2023-05-12T23:17:12.304Z,100.00
2023-05-12T23:22:13.919Z,100.00
2023-05-12T23:27:15.591Z,100.00
2023-05-12T23:32:17.340Z,100.00
2023-05-12T23:37:21.854Z,100.00
2023-05-12T23:42:23.445Z,100.00
2023-05-12T23:47:25.152Z,100.00
2023-05-12T23:52:26.822Z,100.00
2023-05-12T23:57:28.480Z,100.00
